createdAt,value
2019-06-01T00:00:10.093Z,0.00
2019-06-01T00:00:54.457Z,0.00
2019-06-01T00:01:54.517Z,0.00
2019-06-01T00:02:56.391Z,0.00
2019-06-01T00:03:54.457Z,0.00
2019-06-01T00:04:54.464Z,0.00
2019-06-01T00:05:54.408Z,0.00
2019-06-01T00:06:54.400Z,0.00
2019-06-01T00:07:54.383Z,0.00
2019-06-01T00:08:54.424Z,0.00
2019-06-01T00:09:54.366Z,0.00
2019-06-01T00:10:54.351Z,0.00
2019-06-01T00:11:54.347Z,0.00
2019-06-01T00:12:54.353Z,0.00
2019-06-01T00:13:54.336Z,0.00
2019-06-01T00:14:54.319Z,0.00
2019-06-01T00:15:54.320Z,0.00
2019-06-01T00:16:54.334Z,0.00
2019-06-01T00:17:54.285Z,0.00
2019-06-01T00:18:54.279Z,0.00
2019-06-01T00:19:54.261Z,0.00
2019-06-01T00:20:54.951Z,0.00
2019-06-01T00:21:54.386Z,0.00
2019-06-01T00:22:54.229Z,0.00
2019-06-01T00:23:54.225Z,0.00
2019-06-01T00:24:54.209Z,0.00
2019-06-01T00:25:54.199Z,0.00
2019-06-01T00:26:54.185Z,0.00
2019-06-01T00:27:54.175Z,0.00
2019-06-01T00:28:54.174Z,0.00
2019-06-01T00:29:54.197Z,0.00
2019-06-01T00:30:54.144Z,0.00
2019-06-01T00:31:54.231Z,0.00
2019-06-01T00:32:54.122Z,0.00
2019-06-01T00:33:54.135Z,0.00
2019-06-01T00:34:54.106Z,0.00
2019-06-01T00:35:54.107Z,0.00
2019-06-01T00:36:54.076Z,0.00
2019-06-01T00:37:54.065Z,0.00
2019-06-01T00:38:54.077Z,0.00
2019-06-01T00:39:54.050Z,0.00
2019-06-01T00:40:54.042Z,0.00
2019-06-01T00:41:54.039Z,0.00
2019-06-01T00:42:54.010Z,0.00
2019-06-01T00:43:53.998Z,0.00
2019-06-01T00:44:54.074Z,0.00
2019-06-01T00:45:53.989Z,0.00
2019-06-01T00:46:53.973Z,0.00
2019-06-01T00:47:53.975Z,0.00
2019-06-01T00:48:54.189Z,0.00
2019-06-01T00:49:53.940Z,0.00
2019-06-01T00:50:53.924Z,0.00
2019-06-01T00:51:53.912Z,0.00
2019-06-01T00:52:53.908Z,0.00
2019-06-01T00:53:53.891Z,0.00
2019-06-01T00:54:54.793Z,0.00
2019-06-01T00:55:53.871Z,0.00
2019-06-01T00:56:53.977Z,0.00
2019-06-01T00:57:54.018Z,0.00
2019-06-01T00:58:53.997Z,0.00
2019-06-01T00:59:55.098Z,0.00
2019-06-01T01:00:55.183Z,0.00
2019-06-01T01:01:54.263Z,0.00
2019-06-01T01:02:54.380Z,0.00
2019-06-01T01:03:54.455Z,0.00
2019-06-01T01:04:54.381Z,0.00
2019-06-01T01:05:54.858Z,0.00
2019-06-01T01:06:54.816Z,0.00
2019-06-01T01:07:55.038Z,0.00
2019-06-01T01:08:54.987Z,0.00
2019-06-01T01:09:54.936Z,0.00
2019-06-01T01:10:53.709Z,0.00
2019-06-01T01:11:53.701Z,0.00
2019-06-01T01:12:53.691Z,0.00
2019-06-01T01:13:53.678Z,0.00
2019-06-01T01:14:53.678Z,0.00
2019-06-01T01:15:53.663Z,0.00
2019-06-01T01:16:54.136Z,0.00
2019-06-01T01:17:53.966Z,0.00
2019-06-01T01:18:53.901Z,0.00
2019-06-01T01:19:54.005Z,0.00
2019-06-01T01:20:54.284Z,0.00
2019-06-01T01:21:54.112Z,0.00
2019-06-01T01:22:54.364Z,0.00
2019-06-01T01:23:54.753Z,0.00
2019-06-01T01:24:54.569Z,0.00
2019-06-01T01:25:54.569Z,0.00
2019-06-01T01:26:54.650Z,0.00
2019-06-01T01:27:54.752Z,0.00
2019-06-01T01:28:53.513Z,0.00
2019-06-01T01:29:53.519Z,0.00
2019-06-01T01:31:06.841Z,0.00
2019-06-01T01:31:53.494Z,0.00
2019-06-01T01:32:53.710Z,0.00
2019-06-01T01:33:53.664Z,0.00
2019-06-01T01:34:53.790Z,0.00
2019-06-01T01:35:54.205Z,0.00
2019-06-01T01:36:54.314Z,0.00
2019-06-01T01:37:53.878Z,0.00
2019-06-01T01:38:54.338Z,0.00
2019-06-01T01:39:54.248Z,0.00
2019-06-01T01:40:54.197Z,0.00
2019-06-01T01:41:54.236Z,0.00
2019-06-01T01:42:54.435Z,0.00
2019-06-01T01:43:54.509Z,0.00
2019-06-01T01:44:54.583Z,0.00
2019-06-01T01:45:53.337Z,0.00
2019-06-01T01:46:53.320Z,0.00
2019-06-01T01:47:53.327Z,0.00
2019-06-01T01:48:54.193Z,0.00
2019-06-01T01:49:54.060Z,0.00
2019-06-01T01:50:54.261Z,0.00
2019-06-01T01:51:53.280Z,0.00
2019-06-01T01:52:54.425Z,0.00
2019-06-01T01:53:54.601Z,0.00
2019-06-01T01:54:53.245Z,0.00
2019-06-01T01:55:53.222Z,0.00
2019-06-01T01:56:54.142Z,0.00
2019-06-01T01:57:53.360Z,0.00
2019-06-01T01:58:54.303Z,0.00
2019-06-01T01:59:53.392Z,0.00
2019-06-01T02:00:54.635Z,0.00
2019-06-01T02:01:53.161Z,0.00
2019-06-01T02:02:53.998Z,0.00
2019-06-01T02:03:53.743Z,0.00
2019-06-01T02:04:53.671Z,0.00
2019-06-01T02:05:53.127Z,0.00
2019-06-01T02:06:53.940Z,0.00
2019-06-01T02:07:53.090Z,0.00
2019-06-01T02:08:53.495Z,0.00
2019-06-01T02:09:53.312Z,0.00
2019-06-01T02:10:53.367Z,0.00
2019-06-01T02:11:53.469Z,0.00
2019-06-01T02:12:53.440Z,0.00
2019-06-01T02:13:53.589Z,0.00
2019-06-01T02:14:53.694Z,0.00
2019-06-01T02:15:54.113Z,0.00
2019-06-01T02:16:53.963Z,0.00
2019-06-01T02:17:53.944Z,0.00
2019-06-01T02:18:54.298Z,0.00
2019-06-01T02:19:54.076Z,0.00
2019-06-01T02:20:54.263Z,0.00
2019-06-01T02:21:52.939Z,0.00
2019-06-01T02:22:53.090Z,0.00
2019-06-01T02:23:53.004Z,0.00
2019-06-01T02:24:53.784Z,0.00
2019-06-01T02:25:53.008Z,0.00
2019-06-01T02:26:53.120Z,0.00
2019-06-01T02:27:53.166Z,0.00
2019-06-01T02:28:53.216Z,0.00
2019-06-01T02:29:53.142Z,0.00
2019-06-01T02:30:53.963Z,0.00
2019-06-01T02:31:52.843Z,0.00
2019-06-01T02:32:53.823Z,0.00
2019-06-01T02:33:53.769Z,0.00
2019-06-01T02:34:54.259Z,0.00
2019-06-01T02:35:54.392Z,0.00
2019-06-01T02:36:54.326Z,0.00
2019-06-01T02:37:54.514Z,0.00
2019-06-01T02:38:54.506Z,0.00
2019-06-01T02:39:54.245Z,0.00
2019-06-01T02:40:54.751Z,0.00
2019-06-01T02:41:52.765Z,0.00
2019-06-01T02:42:52.723Z,0.00
2019-06-01T02:43:52.697Z,0.00
2019-06-01T02:44:52.699Z,0.00
2019-06-01T02:45:52.697Z,0.00
2019-06-01T02:46:52.696Z,0.00
2019-06-01T02:47:52.663Z,0.00
2019-06-01T02:48:52.646Z,0.00
2019-06-01T02:49:52.642Z,0.00
2019-06-01T02:50:52.635Z,0.00
2019-06-01T02:51:52.624Z,0.00
2019-06-01T02:52:52.607Z,0.00
2019-06-01T02:53:52.598Z,0.00
2019-06-01T02:54:52.577Z,0.00
2019-06-01T02:55:52.625Z,0.00
2019-06-01T02:56:52.562Z,0.00
2019-06-01T02:57:52.550Z,0.00
2019-06-01T02:58:52.549Z,0.00
2019-06-01T02:59:52.523Z,0.00
2019-06-01T03:00:52.736Z,0.00
2019-06-01T03:01:57.425Z,0.00
2019-06-01T03:02:52.529Z,0.00
2019-06-01T03:03:52.553Z,0.00
2019-06-01T03:04:52.513Z,0.00
2019-06-01T03:05:52.775Z,0.00
2019-06-01T03:06:52.519Z,0.00
2019-06-01T03:07:52.548Z,0.00
2019-06-01T03:08:52.472Z,0.00
2019-06-01T03:09:52.451Z,0.00
2019-06-01T03:10:52.516Z,0.00
2019-06-01T03:11:52.436Z,0.00
2019-06-01T03:12:52.429Z,0.00
2019-06-01T03:13:52.740Z,0.00
2019-06-01T03:14:54.340Z,0.00
2019-06-01T03:15:52.391Z,0.00
2019-06-01T03:16:52.394Z,0.00
2019-06-01T03:17:52.367Z,0.00
2019-06-01T03:18:52.344Z,4.00
2019-06-01T03:19:52.345Z,4.00
2019-06-01T03:20:52.364Z,4.00
2019-06-01T03:21:53.317Z,4.00
2019-06-01T03:22:52.327Z,0.00
2019-06-01T03:23:52.299Z,0.00
2019-06-01T03:24:52.271Z,4.00
2019-06-01T03:25:52.282Z,4.00
2019-06-01T03:26:52.260Z,4.00
2019-06-01T03:27:52.257Z,4.00
2019-06-01T03:28:52.252Z,4.00
2019-06-01T03:29:52.242Z,4.00
2019-06-01T03:30:52.240Z,4.00
2019-06-01T03:31:52.210Z,4.00
2019-06-01T03:32:52.204Z,8.00
2019-06-01T03:33:52.435Z,4.00
2019-06-01T03:34:52.202Z,4.00
2019-06-01T03:35:52.205Z,8.00
2019-06-01T03:36:56.010Z,8.00
2019-06-01T03:37:52.135Z,4.00
2019-06-01T03:38:52.303Z,8.00
2019-06-01T03:39:52.126Z,8.00
2019-06-01T03:40:52.166Z,12.00
2019-06-01T03:41:52.073Z,8.00
2019-06-01T03:42:52.096Z,8.00
2019-06-01T03:43:52.114Z,12.00
2019-06-01T03:44:52.188Z,12.00
2019-06-01T03:45:53.068Z,12.00
2019-06-01T03:46:52.057Z,12.00
2019-06-01T03:47:52.022Z,12.00
2019-06-01T03:48:52.017Z,12.00
2019-06-01T03:49:51.997Z,16.00
2019-06-01T03:50:52.036Z,12.00
2019-06-01T03:51:52.016Z,16.00
2019-06-01T03:52:51.998Z,16.00
2019-06-01T03:53:51.981Z,16.00
2019-06-01T03:54:51.928Z,20.00
2019-06-01T03:55:51.953Z,16.00
2019-06-01T03:56:51.921Z,20.00
2019-06-01T03:57:51.927Z,20.00
2019-06-01T03:58:51.938Z,20.00
2019-06-01T03:59:51.902Z,24.00
2019-06-01T04:00:51.923Z,20.00
2019-06-01T04:01:51.907Z,24.00
2019-06-01T04:02:52.792Z,24.00
2019-06-01T04:03:51.830Z,28.00
2019-06-01T04:04:51.833Z,24.00
2019-06-01T04:05:51.811Z,28.00
2019-06-01T04:06:51.848Z,24.00
2019-06-01T04:07:51.836Z,28.00
2019-06-01T04:08:51.784Z,28.00
2019-06-01T04:09:51.807Z,28.00
2019-06-01T04:10:51.773Z,32.00
2019-06-01T04:11:51.828Z,28.00
2019-06-01T04:12:51.780Z,28.00
2019-06-01T04:13:51.782Z,32.00
2019-06-01T04:14:51.742Z,32.00
2019-06-01T04:15:51.731Z,36.00
2019-06-01T04:16:51.745Z,36.00
2019-06-01T04:17:52.316Z,36.00
2019-06-01T04:18:51.694Z,36.00
2019-06-01T04:19:51.696Z,36.00
2019-06-01T04:20:51.663Z,40.00
2019-06-01T04:21:51.682Z,40.00
2019-06-01T04:22:51.647Z,36.00
2019-06-01T04:23:51.719Z,40.00
2019-06-01T04:24:51.620Z,40.00
2019-06-01T04:25:51.635Z,40.00
2019-06-01T04:26:51.633Z,44.00
2019-06-01T04:27:51.571Z,44.00
2019-06-01T04:28:51.802Z,44.00
2019-06-01T04:29:51.588Z,40.00
2019-06-01T04:30:51.559Z,40.00
2019-06-01T04:31:51.591Z,44.00
2019-06-01T04:32:52.333Z,44.00
2019-06-01T04:33:51.511Z,44.00
2019-06-01T04:34:51.556Z,48.00
2019-06-01T04:35:51.542Z,44.00
2019-06-01T04:36:51.595Z,44.00
2019-06-01T04:37:51.466Z,48.00
2019-06-01T04:38:51.498Z,48.00
2019-06-01T04:39:51.522Z,44.00
2019-06-01T04:40:51.465Z,48.00
2019-06-01T04:41:51.443Z,44.00
2019-06-01T04:42:51.447Z,44.00
2019-06-01T04:43:51.421Z,44.00
2019-06-01T04:44:51.392Z,48.00
2019-06-01T04:45:51.389Z,48.00
2019-06-01T04:46:51.418Z,48.00
2019-06-01T04:47:51.397Z,44.00
2019-06-01T04:48:51.467Z,48.00
2019-06-01T04:49:51.388Z,48.00
2019-06-01T04:50:51.585Z,48.00
2019-06-01T04:51:51.396Z,48.00
2019-06-01T04:52:51.326Z,48.00
2019-06-01T04:53:51.299Z,44.00
2019-06-01T04:54:51.306Z,44.00
2019-06-01T04:55:51.297Z,44.00
2019-06-01T04:56:52.357Z,44.00
2019-06-01T04:57:51.299Z,48.00
2019-06-01T04:58:51.237Z,44.00
2019-06-01T04:59:51.264Z,44.00
2019-06-01T05:00:51.223Z,44.00
2019-06-01T05:01:51.263Z,44.00
2019-06-01T05:03:04.539Z,44.00
2019-06-01T05:03:51.191Z,44.00
2019-06-01T05:04:51.174Z,48.00
2019-06-01T05:05:51.170Z,48.00
2019-06-01T05:06:51.204Z,48.00
2019-06-01T05:07:51.198Z,48.00
2019-06-01T05:08:51.171Z,52.00
2019-06-01T05:09:52.094Z,52.00
2019-06-01T05:10:51.143Z,52.00
2019-06-01T05:11:51.171Z,52.00
2019-06-01T05:12:51.126Z,56.00
2019-06-01T05:13:51.104Z,52.00
2019-06-01T05:14:51.080Z,56.00
2019-06-01T05:15:51.062Z,56.00
2019-06-01T05:16:51.044Z,60.00
2019-06-01T05:17:51.047Z,60.00
2019-06-01T05:18:51.297Z,60.00
2019-06-01T05:19:51.042Z,64.00
2019-06-01T05:20:51.022Z,60.00
2019-06-01T05:21:51.031Z,64.00
2019-06-01T05:22:51.002Z,64.00
2019-06-01T05:23:51.825Z,64.00
2019-06-01T05:24:51.002Z,64.00
2019-06-01T05:25:53.237Z,64.00
2019-06-01T05:26:50.956Z,64.00
2019-06-01T05:27:51.269Z,64.00
2019-06-01T05:28:51.140Z,64.00
2019-06-01T05:29:50.905Z,68.00
2019-06-01T05:30:50.922Z,68.00
2019-06-01T05:31:50.909Z,68.00
2019-06-01T05:32:50.909Z,68.00
2019-06-01T05:33:50.877Z,64.00
2019-06-01T05:34:50.849Z,68.00
2019-06-01T05:35:50.841Z,68.00
2019-06-01T05:36:50.829Z,64.00
2019-06-01T05:37:50.863Z,64.00
2019-06-01T05:38:51.822Z,60.00
2019-06-01T05:39:50.810Z,60.00
2019-06-01T05:40:50.833Z,60.00
2019-06-01T05:41:50.799Z,60.00
2019-06-01T05:42:50.845Z,60.00
2019-06-01T05:43:50.751Z,56.00
2019-06-01T05:44:50.784Z,60.00
2019-06-01T05:45:50.783Z,56.00
2019-06-01T05:46:50.762Z,56.00
2019-06-01T05:47:50.723Z,56.00
2019-06-01T05:48:50.730Z,56.00
2019-06-01T05:49:50.736Z,52.00
2019-06-01T05:50:50.693Z,52.00
2019-06-01T05:51:50.682Z,52.00
2019-06-01T05:52:50.699Z,56.00
2019-06-01T05:53:50.645Z,48.00
2019-06-01T05:54:50.665Z,52.00
2019-06-01T05:55:50.626Z,52.00
2019-06-01T05:56:50.618Z,52.00
2019-06-01T05:57:50.615Z,52.00
2019-06-01T05:58:50.598Z,52.00
2019-06-01T05:59:50.641Z,52.00
2019-06-01T06:00:50.577Z,52.00
2019-06-01T06:01:50.617Z,52.00
2019-06-01T06:02:50.591Z,56.00
2019-06-01T06:03:50.586Z,56.00
2019-06-01T06:04:50.536Z,56.00
2019-06-01T06:05:50.518Z,56.00
2019-06-01T06:06:50.504Z,56.00
2019-06-01T06:07:50.507Z,56.00
2019-06-01T06:08:50.497Z,60.00
2019-06-01T06:09:50.590Z,60.00
2019-06-01T06:10:50.477Z,60.00
2019-06-01T06:11:53.863Z,60.00
2019-06-01T06:12:50.483Z,56.00
2019-06-01T06:13:50.444Z,60.00
2019-06-01T06:14:50.449Z,60.00
2019-06-01T06:15:50.453Z,60.00
2019-06-01T06:16:50.408Z,60.00
2019-06-01T06:17:50.432Z,60.00
2019-06-01T06:18:50.431Z,64.00
2019-06-01T06:19:50.366Z,60.00
2019-06-01T06:20:50.386Z,64.00
2019-06-01T06:21:50.355Z,60.00
2019-06-01T06:22:50.370Z,64.00
2019-06-01T06:23:50.323Z,64.00
2019-06-01T06:24:50.343Z,64.00
2019-06-01T06:25:50.349Z,64.00
2019-06-01T06:26:50.314Z,64.00
2019-06-01T06:27:50.293Z,64.00
2019-06-01T06:28:50.289Z,64.00
2019-06-01T06:29:50.255Z,68.00
2019-06-01T06:30:50.259Z,64.00
2019-06-01T06:31:50.282Z,64.00
2019-06-01T06:32:50.241Z,64.00
2019-06-01T06:33:56.594Z,64.00
2019-06-01T06:34:50.204Z,68.00
2019-06-01T06:35:50.263Z,68.00
2019-06-01T06:36:50.182Z,68.00
2019-06-01T06:37:50.191Z,68.00
2019-06-01T06:38:50.185Z,68.00
2019-06-01T06:39:50.149Z,68.00
2019-06-01T06:40:50.138Z,68.00
2019-06-01T06:41:50.128Z,68.00
2019-06-01T06:42:50.168Z,68.00
2019-06-01T06:43:50.125Z,68.00
2019-06-01T06:44:50.094Z,68.00
2019-06-01T06:45:50.090Z,68.00
2019-06-01T06:46:50.109Z,68.00
2019-06-01T06:47:50.079Z,72.00
2019-06-01T06:48:50.104Z,68.00
2019-06-01T06:49:50.051Z,68.00
2019-06-01T06:50:50.051Z,68.00
2019-06-01T06:51:50.505Z,68.00
2019-06-01T06:52:50.048Z,68.00
2019-06-01T06:53:50.001Z,68.00
2019-06-01T06:54:50.027Z,68.00
2019-06-01T06:55:50.026Z,68.00
2019-06-01T06:56:50.051Z,72.00
2019-06-01T06:57:49.991Z,72.00
2019-06-01T06:58:49.959Z,72.00
2019-06-01T06:59:49.978Z,72.00
2019-06-01T07:00:49.977Z,72.00
2019-06-01T07:01:49.953Z,72.00
2019-06-01T07:02:49.925Z,72.00
2019-06-01T07:03:49.908Z,72.00
2019-06-01T07:04:49.881Z,68.00
2019-06-01T07:05:49.872Z,68.00
2019-06-01T07:06:49.945Z,68.00
2019-06-01T07:07:49.874Z,68.00
2019-06-01T07:08:49.888Z,68.00
2019-06-01T07:09:49.863Z,68.00
2019-06-01T07:10:49.839Z,68.00
2019-06-01T07:11:49.846Z,68.00
2019-06-01T07:12:49.805Z,68.00
2019-06-01T07:13:49.792Z,72.00
2019-06-01T07:14:49.788Z,68.00
2019-06-01T07:15:49.805Z,68.00
2019-06-01T07:16:49.751Z,72.00
2019-06-01T07:17:49.764Z,72.00
2019-06-01T07:18:50.296Z,68.00
2019-06-01T07:19:49.754Z,68.00
2019-06-01T07:20:49.712Z,68.00
2019-06-01T07:21:49.697Z,72.00
2019-06-01T07:22:49.683Z,72.00
2019-06-01T07:23:49.687Z,72.00
2019-06-01T07:24:49.665Z,72.00
2019-06-01T07:25:49.704Z,72.00
2019-06-01T07:26:49.649Z,72.00
2019-06-01T07:27:49.747Z,72.00
2019-06-01T07:28:49.650Z,76.00
2019-06-01T07:29:49.637Z,76.00
2019-06-01T07:30:50.812Z,76.00
2019-06-01T07:31:49.624Z,76.00
2019-06-01T07:32:49.583Z,72.00
2019-06-01T07:33:49.600Z,76.00
2019-06-01T07:34:49.573Z,76.00
2019-06-01T07:35:49.552Z,76.00
2019-06-01T07:36:49.567Z,76.00
2019-06-01T07:37:49.526Z,76.00
2019-06-01T07:38:49.569Z,76.00
2019-06-01T07:39:49.506Z,80.00
2019-06-01T07:40:49.538Z,76.00
2019-06-01T07:41:49.515Z,80.00
2019-06-01T07:42:49.511Z,76.00
2019-06-01T07:43:49.479Z,80.00
2019-06-01T07:44:49.478Z,80.00
2019-06-01T07:45:49.535Z,80.00
2019-06-01T07:46:49.466Z,80.00
2019-06-01T07:47:49.450Z,84.00
2019-06-01T07:48:49.456Z,80.00
2019-06-01T07:49:49.396Z,80.00
2019-06-01T07:50:49.432Z,84.00
2019-06-01T07:51:49.433Z,84.00
2019-06-01T07:52:49.370Z,80.00
2019-06-01T07:53:49.364Z,84.00
2019-06-01T07:54:49.339Z,84.00
2019-06-01T07:55:49.327Z,84.00
2019-06-01T07:56:49.326Z,84.00
2019-06-01T07:57:49.417Z,84.00
2019-06-01T07:58:49.353Z,84.00
2019-06-01T07:59:49.305Z,84.00
2019-06-01T08:00:49.441Z,88.00
2019-06-01T08:01:49.301Z,88.00
2019-06-01T08:02:49.840Z,88.00
2019-06-01T08:03:49.257Z,88.00
2019-06-01T08:04:54.100Z,92.00
2019-06-01T08:05:49.245Z,88.00
2019-06-01T08:06:49.351Z,92.00
2019-06-01T08:07:49.199Z,92.00
2019-06-01T08:08:49.240Z,92.00
2019-06-01T08:09:49.218Z,92.00
2019-06-01T08:10:49.167Z,92.00
2019-06-01T08:11:49.154Z,92.00
2019-06-01T08:12:49.178Z,96.00
2019-06-01T08:13:49.163Z,96.00
2019-06-01T08:14:49.157Z,96.00
2019-06-01T08:15:49.168Z,96.00
2019-06-01T08:16:49.130Z,96.00
2019-06-01T08:17:49.091Z,96.00
2019-06-01T08:18:52.962Z,100.00
2019-06-01T08:19:51.884Z,100.00
2019-06-01T08:20:49.058Z,100.00
2019-06-01T08:21:49.092Z,100.00
2019-06-01T08:22:49.060Z,100.00
2019-06-01T08:23:49.045Z,100.00
2019-06-01T08:24:49.020Z,104.00
2019-06-01T08:25:49.036Z,104.00
2019-06-01T08:26:49.027Z,108.00
2019-06-01T08:27:49.048Z,104.00
2019-06-01T08:28:49.327Z,108.00
2019-06-01T08:29:48.990Z,104.00
2019-06-01T08:30:48.951Z,108.00
2019-06-01T08:31:48.948Z,108.00
2019-06-01T08:32:48.988Z,108.00
2019-06-01T08:33:48.936Z,108.00
2019-06-01T08:34:48.917Z,108.00
2019-06-01T08:35:48.922Z,108.00
2019-06-01T08:36:48.888Z,108.00
2019-06-01T08:37:48.874Z,112.00
2019-06-01T08:38:48.877Z,108.00
2019-06-01T08:39:48.894Z,112.00
2019-06-01T08:40:48.903Z,112.00
2019-06-01T08:41:49.150Z,112.00
2019-06-01T08:42:48.839Z,112.00
2019-06-01T08:43:48.812Z,112.00
2019-06-01T08:44:48.824Z,116.00
2019-06-01T08:45:48.792Z,112.00
2019-06-01T08:46:48.783Z,116.00
2019-06-01T08:47:48.801Z,116.00
2019-06-01T08:48:48.782Z,120.00
2019-06-01T08:49:48.803Z,120.00
2019-06-01T08:50:48.749Z,120.00
2019-06-01T08:51:48.758Z,116.00
2019-06-01T08:52:48.715Z,120.00
2019-06-01T08:53:48.715Z,120.00
2019-06-01T08:54:48.703Z,120.00
2019-06-01T08:55:48.693Z,120.00
2019-06-01T08:56:48.685Z,120.00
2019-06-01T08:57:48.714Z,120.00
2019-06-01T08:58:48.718Z,120.00
2019-06-01T08:59:48.677Z,124.00
2019-06-01T09:00:48.645Z,120.00
2019-06-01T09:01:48.651Z,116.00
2019-06-01T09:02:48.703Z,116.00
2019-06-01T09:03:48.604Z,120.00
2019-06-01T09:04:48.632Z,116.00
2019-06-01T09:05:48.578Z,120.00
2019-06-01T09:06:48.601Z,116.00
2019-06-01T09:07:48.610Z,124.00
2019-06-01T09:08:48.553Z,120.00
2019-06-01T09:09:48.545Z,120.00
2019-06-01T09:10:48.597Z,120.00
2019-06-01T09:11:48.568Z,120.00
2019-06-01T09:12:48.534Z,124.00
2019-06-01T09:13:52.181Z,124.00
2019-06-01T09:14:48.491Z,124.00
2019-06-01T09:15:48.488Z,124.00
2019-06-01T09:16:48.458Z,128.00
2019-06-01T09:17:48.474Z,124.00
2019-06-01T09:18:48.433Z,128.00
2019-06-01T09:19:48.445Z,132.00
2019-06-01T09:20:48.452Z,128.00
2019-06-01T09:21:48.401Z,128.00
2019-06-01T09:22:48.521Z,128.00
2019-06-01T09:23:48.389Z,132.00
2019-06-01T09:24:48.384Z,132.00
2019-06-01T09:25:48.398Z,132.00
2019-06-01T09:26:48.352Z,136.00
2019-06-01T09:27:48.338Z,132.00
2019-06-01T09:28:48.345Z,136.00
2019-06-01T09:29:48.348Z,136.00
2019-06-01T09:30:48.341Z,132.00
2019-06-01T09:31:48.304Z,136.00
2019-06-01T09:32:48.280Z,136.00
2019-06-01T09:33:48.333Z,136.00
2019-06-01T09:34:48.290Z,136.00
2019-06-01T09:35:55.988Z,140.00
2019-06-01T09:36:48.242Z,140.00
2019-06-01T09:37:48.305Z,140.00
2019-06-01T09:38:48.227Z,140.00
2019-06-01T09:39:48.238Z,140.00
2019-06-01T09:40:48.282Z,144.00
2019-06-01T09:41:48.249Z,140.00
2019-06-01T09:42:48.178Z,144.00
2019-06-01T09:43:48.165Z,140.00
2019-06-01T09:44:48.166Z,144.00
2019-06-01T09:45:52.792Z,144.00
2019-06-01T09:46:48.131Z,144.00
2019-06-01T09:47:48.136Z,144.00
2019-06-01T09:48:48.108Z,148.00
2019-06-01T09:49:48.114Z,148.00
2019-06-01T09:50:48.109Z,144.00
2019-06-01T09:51:48.096Z,148.00
2019-06-01T09:52:48.067Z,148.00
2019-06-01T09:53:48.057Z,148.00
2019-06-01T09:54:48.775Z,148.00
2019-06-01T09:55:48.079Z,152.00
2019-06-01T09:56:48.039Z,148.00
2019-06-01T09:57:48.033Z,152.00
2019-06-01T09:58:48.021Z,148.00
2019-06-01T09:59:48.038Z,152.00
2019-06-01T10:00:47.983Z,148.00
2019-06-01T10:01:48.070Z,152.00
2019-06-01T10:02:47.992Z,148.00
2019-06-01T10:03:47.971Z,148.00
2019-06-01T10:04:47.973Z,148.00
2019-06-01T10:06:01.292Z,152.00
2019-06-01T10:06:47.916Z,152.00
2019-06-01T10:07:47.907Z,148.00
2019-06-01T10:08:47.894Z,148.00
2019-06-01T10:09:47.906Z,148.00
2019-06-01T10:10:47.886Z,148.00
2019-06-01T10:11:47.880Z,148.00
2019-06-01T10:12:47.855Z,152.00
2019-06-01T10:13:47.874Z,148.00
2019-06-01T10:14:47.857Z,148.00
2019-06-01T10:15:47.819Z,148.00
2019-06-01T10:16:47.835Z,156.00
2019-06-01T10:17:47.805Z,156.00
2019-06-01T10:18:47.821Z,156.00
2019-06-01T10:19:47.799Z,160.00
2019-06-01T10:20:47.773Z,160.00
2019-06-01T10:21:47.753Z,160.00
2019-06-01T10:22:47.747Z,160.00
2019-06-01T10:23:49.743Z,160.00
2019-06-01T10:24:47.725Z,152.00
2019-06-01T10:25:47.754Z,160.00
2019-06-01T10:26:47.697Z,160.00
2019-06-01T10:27:47.705Z,160.00
2019-06-01T10:28:47.677Z,160.00
2019-06-01T10:29:47.669Z,160.00
2019-06-01T10:30:47.672Z,160.00
2019-06-01T10:31:47.655Z,164.00
2019-06-01T10:32:47.649Z,164.00
2019-06-01T10:33:51.282Z,164.00
2019-06-01T10:34:47.653Z,164.00
2019-06-01T10:35:47.636Z,164.00
2019-06-01T10:36:47.608Z,160.00
2019-06-01T10:37:47.585Z,164.00
2019-06-01T10:38:47.616Z,164.00
2019-06-01T10:39:47.573Z,164.00
2019-06-01T10:40:47.561Z,164.00
2019-06-01T10:41:47.546Z,164.00
2019-06-01T10:42:47.540Z,164.00
2019-06-01T10:43:47.518Z,168.00
2019-06-01T10:44:47.537Z,164.00
2019-06-01T10:45:47.505Z,164.00
2019-06-01T10:46:47.609Z,168.00
2019-06-01T10:47:47.467Z,168.00
2019-06-01T10:48:47.463Z,168.00
2019-06-01T10:49:47.461Z,172.00
2019-06-01T10:50:47.489Z,168.00
2019-06-01T10:51:47.459Z,172.00
2019-06-01T10:52:47.424Z,172.00
2019-06-01T10:53:47.412Z,176.00
2019-06-01T10:54:47.412Z,176.00
2019-06-01T10:55:47.408Z,176.00
2019-06-01T10:56:47.379Z,176.00
2019-06-01T10:57:47.363Z,176.00
2019-06-01T10:58:59.599Z,180.00
2019-06-01T10:59:47.351Z,176.00
2019-06-01T11:00:51.077Z,176.00
2019-06-01T11:01:47.339Z,176.00
2019-06-01T11:02:47.305Z,176.00
2019-06-01T11:03:47.297Z,180.00
2019-06-01T11:04:47.283Z,180.00
2019-06-01T11:05:47.289Z,176.00
2019-06-01T11:06:48.788Z,180.00
2019-06-01T11:07:47.258Z,180.00
2019-06-01T11:08:51.736Z,180.00
2019-06-01T11:09:47.247Z,180.00
2019-06-01T11:10:47.234Z,180.00
2019-06-01T11:11:47.214Z,188.00
2019-06-01T11:12:47.236Z,184.00
2019-06-01T11:13:47.202Z,188.00
2019-06-01T11:14:47.179Z,188.00
2019-06-01T11:15:47.183Z,188.00
2019-06-01T11:16:54.902Z,192.00
2019-06-01T11:17:47.159Z,192.00
2019-06-01T11:18:47.382Z,196.00
2019-06-01T11:19:47.132Z,196.00
2019-06-01T11:20:47.142Z,196.00
2019-06-01T11:21:47.105Z,200.00
2019-06-01T11:22:47.095Z,200.00
2019-06-01T11:23:47.084Z,200.00
2019-06-01T11:24:47.084Z,200.00
2019-06-01T11:25:47.080Z,204.00
2019-06-01T11:26:47.052Z,200.00
2019-06-01T11:27:47.583Z,204.00
2019-06-01T11:28:47.038Z,200.00
2019-06-01T11:29:51.020Z,196.00
2019-06-01T11:30:47.017Z,196.00
2019-06-01T11:31:47.021Z,200.00
2019-06-01T11:32:46.986Z,204.00
2019-06-01T11:33:46.977Z,208.00
2019-06-01T11:34:46.984Z,204.00
2019-06-01T11:35:47.012Z,208.00
2019-06-01T11:37:04.428Z,208.00
2019-06-01T11:37:46.932Z,208.00
2019-06-01T11:38:46.934Z,208.00
2019-06-01T11:39:46.937Z,204.00
2019-06-01T11:40:46.910Z,204.00
2019-06-01T11:41:46.976Z,204.00
2019-06-01T11:42:46.935Z,200.00
2019-06-01T11:43:46.926Z,200.00
2019-06-01T11:44:47.377Z,200.00
2019-06-01T11:45:46.868Z,200.00
2019-06-01T11:46:46.846Z,204.00
2019-06-01T11:47:46.823Z,212.00
2019-06-01T11:48:46.815Z,220.00
2019-06-01T11:49:46.814Z,216.00
2019-06-01T11:50:46.819Z,228.00
2019-06-01T11:51:46.786Z,228.00
2019-06-01T11:52:46.766Z,228.00
2019-06-01T11:53:46.769Z,232.00
2019-06-01T11:54:46.748Z,236.00
2019-06-01T11:55:46.736Z,240.00
2019-06-01T11:56:46.759Z,240.00
2019-06-01T11:57:46.721Z,244.00
2019-06-01T11:58:46.707Z,240.00
2019-06-01T11:59:46.733Z,240.00
2019-06-01T12:00:46.683Z,232.00
2019-06-01T12:01:46.687Z,236.00
2019-06-01T12:02:46.693Z,244.00
2019-06-01T12:03:46.656Z,248.00
2019-06-01T12:04:46.656Z,244.00
2019-06-01T12:05:46.641Z,252.00
2019-06-01T12:06:46.630Z,264.00
2019-06-01T12:07:46.641Z,264.00
2019-06-01T12:08:46.620Z,264.00
2019-06-01T12:09:46.595Z,260.00
2019-06-01T12:10:47.787Z,264.00
2019-06-01T12:11:46.594Z,272.00
2019-06-01T12:12:46.627Z,272.00
2019-06-01T12:13:46.669Z,296.00
2019-06-01T12:14:46.849Z,312.00
2019-06-01T12:15:46.520Z,328.00
2019-06-01T12:16:46.878Z,340.00
2019-06-01T12:17:47.336Z,356.00
2019-06-01T12:18:46.972Z,360.00
2019-06-01T12:19:46.953Z,376.00
2019-06-01T12:20:47.344Z,380.00
2019-06-01T12:21:47.431Z,392.00
2019-06-01T12:22:47.173Z,404.00
2019-06-01T12:23:47.582Z,416.00
2019-06-01T12:24:47.383Z,424.00
2019-06-01T12:25:46.429Z,428.00
2019-06-01T12:26:47.493Z,440.00
2019-06-01T12:27:46.403Z,452.00
2019-06-01T12:28:47.791Z,464.00
2019-06-01T12:29:46.378Z,476.00
2019-06-01T12:30:46.360Z,488.00
2019-06-01T12:31:46.579Z,500.00
2019-06-01T12:32:46.337Z,504.00
2019-06-01T12:33:46.487Z,516.00
2019-06-01T12:34:46.347Z,524.00
2019-06-01T12:35:46.323Z,536.00
2019-06-01T12:36:46.504Z,548.00
2019-06-01T12:38:04.542Z,564.00
2019-06-01T12:38:46.475Z,580.00
2019-06-01T12:39:52.202Z,592.00
2019-06-01T12:40:47.339Z,608.00
2019-06-01T12:41:47.733Z,608.00
2019-06-01T12:42:47.647Z,624.00
2019-06-01T12:43:46.223Z,644.00
2019-06-01T12:44:46.216Z,656.00
2019-06-01T12:45:46.238Z,664.00
2019-06-01T12:46:46.930Z,668.00
2019-06-01T12:47:49.538Z,676.00
2019-06-01T12:48:46.376Z,676.00
2019-06-01T12:49:46.346Z,684.00
2019-06-01T12:50:49.314Z,704.00